Latest Weather Observations for Amberley

IDQ60901

Issued at 5:21 pm EST Monday 29 August 2016 (issued every 10 minutes, with the page automatically refreshed every 10 minutes)

About weather observations | Map of Brisbane area stations | Latest observations for Brisbane area | Other Formats
Station Details ID: 040004 Name: AMBERLEY AMO Lat: -27.63 Lon: 152.71 Height: 24.2 m
Data from the previous 72 hours. | See also: Recent months at Amberley
Date/Time
EST
Temp
°C
App
Temp
°C
Dew
Point
°C
Rel
Hum
%
Delta-T
°C
Wind Press
QNH
hPa
Press
MSL
hPa
Rain since
9am
mm
Dir  Spd
km/h
Gust
km/h
Spd
kts
Gust
kts
29/05:00pm 20.7 16.0 9.4 48 6.0 NE 24 33 13 18 1024.0 1024.0 0.0
29/04:30pm 21.9 17.0 8.6 42 7.0 ENE 24 32 13 17 1023.5 1023.5 0.0
29/04:00pm 23.2 19.0 8.2 38 7.9 NE 20 30 11 16 1023.0 1023.0 0.0
29/03:30pm 24.1 21.9 6.3 31 9.1 E 7 17 4 9 1022.9 1022.9 0.0
29/03:00pm 23.9 20.3 5.1 29 9.4 ESE 13 17 7 9 1023.1 1023.1 0.0
29/02:30pm 23.5 20.0 5.6 31 9.0 NNE 13 19 7 10 1023.2 1023.2 0.0
29/02:00pm 23.7 20.1 4.8 29 9.4 ESE 13 17 7 9 1023.1 1023.1 0.0
29/01:30pm 23.2 20.7 6.6 34 8.5 E 9 15 5 8 1023.1 1023.1 0.0
29/01:00pm 22.8 21.2 7.9 38 7.8 N 6 13 3 7 1023.5 1023.5 0.0
29/12:30pm 22.4 19.6 7.0 37 7.9 NE 11 17 6 9 1024.1 1024.1 0.0
29/12:00pm 22.7 20.7 8.8 41 7.4 NE 9 15 5 8 1024.5 1024.5 0.0
29/11:30am 21.7 19.8 9.1 44 6.7 N 9 13 5 7 1024.8 1024.8 0.0
29/11:00am 20.7 18.9 9.4 48 6.0 NW 9 13 5 7 1025.6 1025.6 0.0
29/10:30am 20.0 18.7 10.1 53 5.3 WNW 7 13 4 7 1026.1 1026.1 0.0
29/10:00am 18.5 17.4 10.0 57 4.5 WSW 6 9 3 5 1026.1 1026.1 0.0
29/09:30am 17.2 16.2 10.2 63 3.7 NW 6 11 3 6 1026.1 1026.1 0.0
29/09:00am 15.5 14.3 10.3 71 2.7 NW 7 9 4 5 1026.5 1026.5 0.0
29/08:30am 13.1 12.8 10.0 81 1.6 NW 2 7 1 4 1026.5 1026.5 0.0
29/08:00am 11.1 10.9 8.9 86 1.1 CALM 0 0 0 0 1026.0 1026.0 0.0
29/07:30am 9.2 8.7 7.9 92 0.6 CALM 0 0 0 0 1025.7 1025.7 0.0
29/07:00am 7.3 6.5 6.4 94 0.4 CALM 0 0 0 0 1025.4 1025.4 0.0
29/06:53am 6.7 5.9 6.3 97 0.2 CALM 0 0 0 0 1025.4 1025.4 0.0
29/06:44am 5.8 4.7 5.1 95 0.3 CALM 0 0 0 0 1025.3 1025.3 0.0
29/06:30am 5.0 3.8 4.5 97 0.2 CALM 0 0 0 0 1025.0 1025.0 0.0
29/06:00am 5.3 4.2 5.1 99 0.1 CALM 0 0 0 0 1024.5 1024.5 0.0
29/05:30am 5.7 4.6 5.2 97 0.2 CALM 0 0 0 0 1023.9 1023.9 0.0
29/05:00am 6.0 4.9 5.3 95 0.3 CALM 0 0 0 0 1023.5 1023.5 0.0
29/04:58am 5.9 4.8 5.2 95 0.3 CALM 0 0 0 0 1023.5 1023.5 0.0
29/04:30am 6.1 5.1 5.6 97 0.2 CALM 0 0 0 0 1023.4 1023.4 0.0
29/04:11am 6.4 5.4 5.7 95 0.3 CALM 0 0 0 0 1023.3 1023.3 0.0
29/04:00am 6.2 5.2 5.7 97 0.2 CALM 0 0 0 0 1023.3 1023.3 0.0
29/03:52am 5.8 4.8 5.6 99 0.1 CALM 0 0 0 0 1023.3 1023.3 0.0
29/03:30am 6.9 6.0 6.2 95 0.3 CALM 0 0 0 0 1023.3 1023.3 0.0
29/03:00am 6.9 6.0 6.2 95 0.3 CALM 0 0 0 0 1023.4 1023.4 0.0
29/02:30am 7.1 6.2 6.0 93 0.5 CALM 0 0 0 0 1023.4 1023.4 0.0
29/02:00am 7.5 6.7 6.6 94 0.4 CALM 0 0 0 0 1023.5 1023.5 0.0
29/01:30am 7.6 6.8 6.3 91 0.6 CALM 0 0 0 0 1023.5 1023.5 0.0
29/01:00am 8.3 7.6 6.8 90 0.7 CALM 0 0 0 0 1023.6 1023.6 0.0
29/12:30am 9.1 8.3 6.5 84 1.2 CALM 0 0 0 0 1023.6 1023.6 0.0
29/12:00am 8.4 5.8 6.2 86 1.0 NW 9 11 5 6 1023.6 1023.6 0.0
 
Date/Time
EST
Temp
°C
App
Temp
°C
Dew
Point
°C
Rel
Hum
%
Delta-T
°C
Wind Press
QNH
hPa
Press
MSL
hPa
Rain since
9am
mm
Dir  Spd
km/h
Gust
km/h
Spd
kts
Gust
kts
28/11:30pm 9.0 7.8 6.6 85 1.1 NW 2 7 1 4 1023.5 1023.5 0.0
28/11:00pm 8.9 8.1 6.7 86 1.0 CALM 0 0 0 0 1023.3 1023.3 0.0
28/10:30pm 8.9 7.1 7.0 88 0.9 WNW 6 7 3 4 1023.1 1023.1 0.0
28/10:00pm 9.1 8.5 7.2 88 0.9 CALM 0 0 0 0 1022.9 1022.9 0.0
28/09:30pm 10.7 10.2 7.8 82 1.4 CALM 0 0 0 0 1023.0 1023.0 0.0
28/09:00pm 14.6 14.1 10.8 78 2.0 ENE 4 7 2 4 1022.7 1022.7 0.0
28/08:30pm 15.2 13.3 10.6 74 2.4 E 11 13 6 7 1022.6 1022.6 0.0
28/08:00pm 16.0 14.1 10.5 70 2.9 ENE 11 13 6 7 1022.4 1022.4 0.0
28/07:30pm 16.4 14.0 9.9 65 3.4 ENE 13 15 7 8 1022.1 1022.1 0.0
28/07:00pm 17.2 14.5 8.8 57 4.3 ENE 13 19 7 10 1021.7 1021.7 0.0
28/06:30pm 17.9 14.4 7.1 49 5.4 ENE 15 19 8 10 1021.2 1021.2 0.0
28/06:00pm 17.5 14.7 3.2 38 6.6 ENE 7 7 4 4 1020.9 1020.9 0.0
28/05:30pm 19.9 16.9 2.0 30 8.2 NE 7 9 4 5 1020.7 1020.7 0.0
28/05:00pm 21.4 18.0 1.6 27 9.1 E 9 13 5 7 1020.5 1020.5 0.0
28/04:30pm 22.4 19.1 0.3 23 10.0 NNE 7 11 4 6 1020.2 1020.2 0.0
28/04:00pm 22.9 19.6 2.7 26 9.6 N 9 15 5 8 1020.0 1020.0 0.0
28/03:30pm 22.5 19.2 2.7 27 9.4 NW 9 17 5 9 1020.0 1020.0 0.0
28/03:00pm 22.6 18.9 2.5 26 9.5 N 11 17 6 9 1020.4 1020.4 0.0
28/02:30pm 22.8 19.9 4.5 30 9.0 WNW 9 17 5 9 1020.7 1020.7 0.0
28/02:00pm 22.4 19.4 4.1 30 8.9 WSW 9 15 5 8 1020.9 1020.9 0.0
28/01:30pm 21.6 18.8 3.3 30 8.7 WSW 7 13 4 7 1021.1 1021.1 0.0
28/01:00pm 21.8 18.7 3.7 30 8.7 WSW 9 11 5 6 1021.4 1021.4 0.0
28/12:30pm 21.5 18.4 3.5 30 8.6 NW 9 15 5 8 1022.0 1022.0 0.0
28/12:00pm 20.6 17.6 4.2 34 7.9 NE 9 13 5 7 1022.5 1022.5 0.0
28/11:30am 20.3 17.6 5.4 37 7.3 SSE 9 19 5 10 1023.0 1023.0 0.0
28/11:00am 19.7 17.3 5.1 38 7.1 WSW 7 15 4 8 1023.7 1023.7 0.0
28/10:30am 18.7 15.8 4.4 39 6.8 W 9 15 5 8 1024.2 1024.2 0.0
28/10:00am 18.4 16.2 6.2 45 6.0 WNW 7 15 4 8 1024.3 1024.3 0.0
28/09:30am 16.3 13.8 6.7 53 4.7 WNW 9 13 5 7 1024.4 1024.4 0.0
28/09:00am 14.2 11.6 6.2 58 3.8 NW 9 13 5 7 1024.6 1024.6 0.0
28/08:30am 11.7 10.9 6.4 70 2.5 CALM 0 7 0 4 1024.6 1024.6 0.0
28/08:00am 9.5 8.6 6.2 80 1.5 CALM 0 0 0 0 1024.4 1024.4 0.0
28/07:30am 8.1 7.3 6.3 88 0.8 CALM 0 0 0 0 1024.2 1024.2 0.0
28/07:00am 5.6 4.5 4.9 95 0.3 CALM 0 0 0 0 1023.6 1023.6 0.0
28/06:30am 3.5 1.9 2.7 94 0.3 CALM 0 0 0 0 1023.1 1023.1 0.0
28/06:00am 3.6 0.3 2.6 93 0.4 SSW 9 9 5 5 1022.9 1022.9 0.0
28/05:30am 3.7 2.2 3.0 95 0.3 CALM 0 0 0 0 1022.4 1022.4 0.0
28/05:00am 3.5 2.0 3.0 97 0.2 CALM 0 0 0 0 1022.3 1022.3 0.0
28/04:30am 4.3 2.9 3.6 95 0.3 CALM 0 0 0 0 1022.1 1022.1 0.0
28/04:00am 4.4 3.0 3.4 93 0.4 CALM 0 0 0 0 1021.8 1021.8 0.0
28/03:30am 4.6 3.2 3.6 93 0.4 CALM 0 0 0 0 1021.6 1021.6 0.0
28/03:00am 5.0 3.7 4.3 95 0.3 CALM 0 0 0 0 1021.8 1021.8 0.0
28/02:30am 5.4 4.2 4.5 94 0.4 CALM 0 0 0 0 1021.9 1021.9 0.0
28/02:00am 5.4 4.2 4.7 95 0.3 CALM 0 0 0 0 1021.9 1021.9 0.0
28/01:30am 5.9 3.9 4.5 91 0.6 WSW 4 7 2 4 1022.2 1022.2 0.0
28/01:00am 6.5 4.5 4.6 88 0.8 W 4 7 2 4 1022.0 1022.0 0.0
28/12:30am 6.0 4.4 4.4 89 0.7 N 2 7 1 4 1021.9 1021.9 0.0
28/12:00am 6.7 5.6 5.1 89 0.7 CALM 0 0 0 0 1022.0 1022.0 0.0
 
Date/Time
EST
Temp
°C
App
Temp
°C
Dew
Point
°C
Rel
Hum
%
Delta-T
°C
Wind Press
QNH
hPa
Press
MSL
hPa
Rain since
9am
mm
Dir  Spd
km/h
Gust
km/h
Spd
kts
Gust
kts
27/11:30pm 7.1 5.9 4.8 85 1.0 CALM 0 6 0 3 1021.9 1021.9 0.0
27/11:00pm 7.0 5.9 5.2 88 0.8 CALM 0 0 0 0 1021.9 1021.9 0.0
27/10:30pm 7.2 6.2 5.4 88 0.8 CALM 0 6 0 3 1022.1 1022.1 0.0
27/10:00pm 6.9 3.7 5.1 88 0.8 NW 11 13 6 7 1021.7 1021.7 0.0
27/09:30pm 7.4 5.0 5.4 87 0.9 NW 7 9 4 5 1021.5 1021.5 0.0
27/09:00pm 9.6 7.3 5.6 76 1.8 WNW 7 7 4 4 1021.3 1021.3 0.0
27/08:30pm 8.5 7.5 5.6 82 1.3 CALM 0 0 0 0 1021.3 1021.3 0.0
27/08:00pm 10.0 7.1 4.9 70 2.3 ESE 9 11 5 6 1021.0 1021.0 0.0
27/07:30pm 11.2 9.3 4.8 64 2.9 SW 4 9 2 5 1020.6 1020.6 0.0
27/07:00pm 12.8 11.5 3.9 54 4.0 CALM 0 0 0 0 1020.2 1020.2 0.0
27/06:30pm 12.5 11.2 4.3 57 3.7 CALM 0 0 0 0 1019.6 1019.6 0.0
27/06:00pm 15.4 13.9 3.0 43 5.6 CALM 0 0 0 0 1019.1 1019.1 0.0
27/05:30pm 17.5 13.7 1.6 34 7.1 SSW 11 13 6 7 1018.8 1018.8 0.0
27/05:00pm 18.9 15.0 0.9 30 8.0 S 11 15 6 8 1018.4 1018.4 0.0
27/04:30pm 19.6 15.5 -0.3 26 8.7 WSW 11 15 6 8 1018.1 1018.1 0.0
27/04:00pm 19.9 16.2 -0.1 26 8.8 SW 9 15 5 8 1017.9 1017.9 0.0
27/03:30pm 20.8 17.6 -0.2 24 9.3 NE 6 9 3 5 1017.7 1017.7 0.0
27/03:00pm 20.8 16.2 -1.0 23 9.5 W 13 20 7 11 1017.7 1017.7 0.0
27/02:30pm 19.8 16.0 -1.1 24 9.0 WSW 9 17 5 9 1017.7 1017.7 0.0
27/02:00pm 20.2 16.0 -1.1 24 9.2 SW 11 19 6 10 1018.0 1018.0 0.0
27/01:30pm 19.9 15.4 -0.1 26 8.8 NW 13 24 7 13 1018.3 1018.3 0.0
27/01:00pm 20.4 14.8 0.1 25 9.0 W 19 30 10 16 1018.5 1018.5 0.0
27/12:30pm 19.6 14.9 1.1 29 8.3 W 15 24 8 13 1018.8 1018.8 0.0
27/12:00pm 19.3 13.8 0.6 28 8.3 SW 19 28 10 15 1019.2 1019.2 0.0
27/11:30am 19.2 14.9 0.8 29 8.2 SW 13 20 7 11 1019.5 1019.5 0.0
27/11:00am 18.1 13.7 0.5 30 7.7 W 13 15 7 8 1019.9 1019.9 0.0
27/10:30am 17.1 12.9 1.5 35 6.9 W 13 19 7 10 1020.3 1020.3 0.0
27/10:00am 16.8 13.0 1.7 36 6.7 WSW 11 17 6 9 1020.7 1020.7 0.0
27/09:30am 15.8 11.9 3.6 44 5.6 WNW 13 20 7 11 1020.7 1020.7 0.0
27/09:00am 14.2 10.8 3.9 50 4.7 WNW 11 15 6 8 1020.8 1020.8 0.0
27/08:30am 12.9 9.3 3.2 51 4.3 NW 11 13 6 7 1020.5 1020.5 0.0
27/08:00am 11.3 8.3 4.1 61 3.2 NW 9 13 5 7 1020.4 1020.4 0.0
27/07:30am 8.7 7.6 5.1 78 1.6 CALM 0 0 0 0 1020.1 1020.1 0.0
27/07:00am 6.0 4.8 4.6 91 0.6 CALM 0 0 0 0 1019.9 1019.9 0.0
27/06:30am 3.9 2.4 3.2 95 0.3 CALM 0 0 0 0 1019.8 1019.8 0.0
27/06:00am 4.4 3.0 3.4 93 0.4 CALM 0 0 0 0 1019.5 1019.5 0.0
27/05:30am 4.9 3.4 3.2 89 0.7 CALM 0 0 0 0 1019.3 1019.3 0.0
27/05:00am 5.2 3.8 3.8 91 0.6 CALM 0 0 0 0 1018.9 1018.9 0.0
27/04:30am 5.0 1.9 3.6 91 0.6 NW 9 9 5 5 1018.5 1018.5 0.0
27/04:00am 4.6 1.9 3.6 93 0.4 NNW 7 9 4 5 1018.3 1018.3 0.0
27/03:30am 5.5 3.4 3.8 89 0.7 SSW 4 7 2 4 1018.2 1018.2 0.0
27/03:00am 6.7 5.2 3.1 78 1.5 CALM 0 0 0 0 1018.2 1018.2 0.0
27/02:30am 6.3 4.9 3.4 82 1.2 CALM 0 0 0 0 1018.3 1018.3 0.0
27/02:00am 7.4 5.1 2.9 73 1.9 ENE 4 7 2 4 1018.0 1018.0 0.0
27/01:30am 7.2 4.1 3.4 77 1.6 WNW 9 11 5 6 1017.8 1017.8 0.0
27/01:00am 6.9 5.6 4.1 82 1.2 CALM 0 0 0 0 1017.9 1017.9 0.0
27/12:30am 8.3 5.2 3.6 72 2.0 W 9 11 5 6 1018.0 1018.0 0.0
27/12:00am 9.3 7.9 3.3 66 2.6 CALM 0 0 0 0 1018.0 1018.0 0.0
 
Date/Time
EST
Temp
°C
App
Temp
°C
Dew
Point
°C
Rel
Hum
%
Delta-T
°C
Wind Press
QNH
hPa
Press
MSL
hPa
Rain since
9am
mm
Dir  Spd
km/h
Gust
km/h
Spd
kts
Gust
kts
26/11:30pm 9.1 7.3 3.3 67 2.5 SSW 2 7 1 4 1017.7 1017.7 0.0
26/11:00pm 11.8 8.5 2.6 53 4.0 SW 9 11 5 6 1017.6 1017.6 0.0
26/10:30pm 11.9 7.4 2.4 52 4.1 WNW 15 19 8 10 1017.6 1017.6 0.0
26/10:00pm 12.3 7.8 2.4 51 4.3 WNW 15 17 8 9 1017.5 1017.5 0.0
26/09:30pm 12.8 8.7 2.5 49 4.5 W 13 19 7 10 1017.4 1017.4 0.0
26/09:00pm 14.1 9.6 2.0 44 5.3 W 15 22 8 12 1017.2 1017.2 0.0
26/08:30pm 14.9 9.4 0.6 37 6.1 W 19 32 10 17 1016.9 1016.9 0.0
26/08:00pm 15.0 9.2 0.1 36 6.3 W 20 28 11 15 1016.6 1016.6 0.0
26/07:30pm 15.3 9.0 -0.8 33 6.7 W 22 30 12 16 1016.2 1016.2 0.0
26/07:00pm 15.0 9.4 -0.2 35 6.4 W 19 28 10 15 1016.0 1016.0 0.0
26/06:30pm 14.0 9.4 1.5 42 5.4 WNW 15 19 8 10 1015.8 1015.8 0.0
26/06:00pm 15.9 10.6 -0.5 32 6.9 WNW 17 24 9 13 1015.3 1015.3 0.0
26/05:30pm 15.8 11.6 1.4 37 6.3 WNW 13 17 7 9 1014.9 1014.9 0.0

Latest Capital City Observations: Canberra | Sydney | Melbourne | Brisbane | Adelaide | Perth | Hobart | Darwin

Other Formats:

Comma delimited format used in spreadsheet applications
http://www.bom.gov.au/fwo/IDQ60901/IDQ60901.94568.axf

JavaScript Object Notation format (JSON) in row-major order
http://www.bom.gov.au/fwo/IDQ60901/IDQ60901.94568.json